To NAV CANADA Home Page Login to a new session Search on AWWS site Feedback and Comments Disclaimer Vers la page française équivalente Tips FAQ What's new on the site To the Forecasts and Observations / NOTAM section To "File a Flight Plan" website Publications and other links Update of the User's profile FIC Telephone Numbers My Weather Data Folder Route Weather Data Regional Weather Data Local Weather Data To the Forecasts and Observations / NOTAM section
Request Generated 04/24/2014 at 20:55:39 UTC . Weather information available at that time is displayed.

METAR/TAF

HAY RIVER/MERLYN CARTER AIRPORT/NT    

METAR CYHY 242000Z 07013KT 15SM BKN230 02/M03 A3002 RMK CI0 SLP177=
METAR CYHY 241900Z 08011KT 15SM BKN230 01/M03 A3003 RMK CI0 SLP179=
METAR CYHY 241800Z 07012KT 15SM BKN230 00/M03 A3003 RMK CI0 SLP180=

TAF CYHY 241738Z 2418/2506 07010G20KT P6SM SCT080 BKN220
RMK NXT FCST BY 250000Z=
Your time UTC time
Weather data provided by Environment Canada and NAV CANADA